Time;durP1;ratioP1;P1;durP2;ratioP2;P2;SDS_P1;SDS_P2;PMS_P1;PMS_P2;Temp;Humidity;BMP_temperature;BMP_pressure;BME280_temperature;BME280_humidity;BME280_pressure;Samples;Min_cycle;Max_cycle;Signal;HPM_P1;HPM_P2
2023/10/10 00:01:39;;;;;;;12.57;3.50;;;15.00;99.90;;;;;;5055483;28;20497;-79
2023/10/10 00:04:06;;;;;;;7.03;2.30;;;14.90;99.90;;;;;;5063360;28;20543;-79
2023/10/10 00:06:38;;;;;;;8.07;2.27;;;14.80;99.90;;;;;;5058657;28;20545;-79
2023/10/10 00:09:08;;;;;;;8.30;3.40;;;14.70;99.90;;;;;;5063050;28;20461;-79
2023/10/10 00:11:37;;;;;;;10.23;4.20;;;14.80;99.90;;;;;;5061450;28;20863;-79
2023/10/10 00:14:06;;;;;;;5.20;1.80;;;14.80;99.90;;;;;;5056077;28;20476;-79
2023/10/10 00:16:37;;;;;;;6.13;2.03;;;14.80;99.90;;;;;;5052688;28;20470;-79
2023/10/10 00:19:17;;;;;;;9.30;2.17;;;14.80;99.90;;;;;;5057962;28;20579;-79
2023/10/10 00:21:44;;;;;;;7.70;4.30;;;14.80;99.90;;;;;;5060434;28;20980;-79
2023/10/10 00:24:12;;;;;;;4.53;2.20;;;14.80;99.90;;;;;;5059381;28;20463;-79
2023/10/10 00:26:42;;;;;;;3.87;2.30;;;14.90;99.90;;;;;;5064362;28;20460;-79
2023/10/10 00:29:11;;;;;;;8.83;2.40;;;14.90;99.90;;;;;;5062753;28;20992;-79
2023/10/10 00:31:43;;;;;;;7.50;3.17;;;15.00;99.90;;;;;;5059985;28;20877;-79
2023/10/10 00:34:10;;;;;;;7.87;3.17;;;15.00;99.90;;;;;;5058990;28;20468;-79
2023/10/10 00:36:40;;;;;;;3.43;2.20;;;14.90;99.90;;;;;;5058743;28;20485;-79
2023/10/10 00:39:22;;;;;;;8.47;2.67;;;15.00;99.90;;;;;;5059647;28;20649;-78
2023/10/10 00:41:53;;;;;;;6.20;1.97;;;14.90;99.90;;;;;;5066178;28;20959;-79
2023/10/10 00:44:22;;;;;;;11.50;1.80;;;14.80;99.90;;;;;;5066188;28;20806;-79
2023/10/10 00:46:54;;;;;;;7.97;2.47;;;14.80;99.90;;;;;;5055788;28;20537;-79
2023/10/10 00:49:24;;;;;;;6.50;2.40;;;14.70;99.90;;;;;;5063058;28;20466;-79
2023/10/10 00:51:53;;;;;;;5.30;1.87;;;14.70;99.90;;;;;;5049111;28;20562;-79
2023/10/10 00:54:31;;;;;;;5.77;2.20;;;14.70;99.90;;;;;;5057764;28;20803;-79
2023/10/10 00:57:00;;;;;;;7.80;3.50;;;14.70;99.90;;;;;;5049539;28;20529;-79
2023/10/10 00:59:32;;;;;;;8.57;3.10;;;14.60;99.90;;;;;;5052981;28;20456;-79
2023/10/10 01:02:03;;;;;;;11.40;2.47;;;14.60;99.90;;;;;;5060717;28;20499;-79
2023/10/10 01:04:35;;;;;;;8.13;2.87;;;14.60;99.90;;;;;;5050701;28;20863;-79
2023/10/10 01:07:06;;;;;;;13.13;4.13;;;14.60;99.90;;;;;;5057503;28;20455;-78
2023/10/10 01:09:35;;;;;;;8.43;2.27;;;14.70;99.90;;;;;;5051445;28;21016;-79
2023/10/10 01:12:04;;;;;;;10.70;4.47;;;14.70;99.90;;;;;;5060188;28;20460;-79
2023/10/10 01:14:32;;;;;;;12.83;3.67;;;14.70;99.90;;;;;;5052298;28;20486;-79
2023/10/10 01:17:00;;;;;;;7.23;2.70;;;14.70;99.90;;;;;;5061744;28;20848;-79
2023/10/10 01:19:29;;;;;;;7.03;2.13;;;14.70;99.90;;;;;;5052608;28;20489;-79
2023/10/10 01:21:59;;;;;;;9.93;2.87;;;14.60;99.90;;;;;;5061101;28;20488;-79
2023/10/10 01:24:26;;;;;;;10.93;2.80;;;14.70;99.90;;;;;;5063258;28;20467;-79
2023/10/10 01:27:03;;;;;;;10.43;2.60;;;14.70;99.90;;;;;;5062449;28;20908;-79
2023/10/10 01:29:40;;;;;;;4.77;1.80;;;14.60;99.90;;;;;;5059410;28;20806;-79
2023/10/10 01:32:10;;;;;;;11.60;2.70;;;14.70;99.90;;;;;;5055629;28;20459;-79
2023/10/10 01:34:43;;;;;;;7.30;1.70;;;14.80;99.90;;;;;;5056978;28;20546;-79
2023/10/10 01:37:20;;;;;;;11.40;2.70;;;14.80;99.90;;;;;;5054250;28;20491;-79
2023/10/10 01:40:00;;;;;;;7.30;2.67;;;14.80;99.90;;;;;;5059841;28;20524;-79
2023/10/10 01:42:35;;;;;;;10.17;1.90;;;14.80;99.90;;;;;;5058290;28;20620;-79
2023/10/10 01:45:07;;;;;;;11.37;4.10;;;14.80;99.90;;;;;;5061778;28;20446;-79
2023/10/10 01:47:35;;;;;;;6.70;1.80;;;14.70;99.90;;;;;;5055028;28;20526;-79
2023/10/10 01:50:07;;;;;;;11.97;4.80;;;14.60;99.90;;;;;;5060432;28;20913;-79
2023/10/10 01:52:38;;;;;;;5.57;3.63;;;14.60;99.90;;;;;;5046215;28;20435;-79
2023/10/10 01:55:06;;;;;;;6.80;2.53;;;14.70;99.90;;;;;;5049763;28;20861;-79
2023/10/10 01:57:33;;;;;;;6.17;2.30;;;14.70;99.90;;;;;;5057512;28;20467;-79
2023/10/10 02:00:19;;;;;;;7.90;2.20;;;14.70;99.90;;;;;;5061631;28;20506;-79
2023/10/10 02:02:49;;;;;;;5.27;2.87;;;14.70;99.90;;;;;;5055632;28;20494;-79
2023/10/10 02:05:29;;;;;;;6.33;3.30;;;14.70;99.90;;;;;;5063653;28;20498;-79
2023/10/10 02:07:57;;;;;;;8.50;2.93;;;14.60;99.90;;;;;;5060254;28;20498;-79
2023/10/10 02:10:26;;;;;;;7.33;2.27;;;14.60;99.90;;;;;;5052151;28;20443;-79
2023/10/10 02:12:53;;;;;;;9.73;2.97;;;14.60;99.90;;;;;;5058810;28;20520;-79
2023/10/10 02:15:26;;;;;;;6.30;2.00;;;14.50;99.90;;;;;;5062592;28;20466;-79
2023/10/10 02:17:54;;;;;;;2.70;1.50;;;14.50;99.90;;;;;;5056213;28;20452;-79
2023/10/10 02:20:49;;;;;;;6.53;3.20;;;14.40;99.90;;;;;;5053438;28;20460;-78
2023/10/10 02:23:32;;;;;;;4.20;2.47;;;14.50;99.90;;;;;;5056940;28;20500;-78
2023/10/10 02:26:14;;;;;;;8.23;4.00;;;14.60;99.90;;;;;;5059085;28;20467;-79
2023/10/10 02:28:47;;;;;;;9.30;2.60;;;14.70;99.90;;;;;;5049602;28;20479;-79
2023/10/10 02:31:16;;;;;;;6.63;2.27;;;14.60;99.90;;;;;;5057058;28;20806;-79
2023/10/10 02:33:55;;;;;;;8.77;2.67;;;14.50;99.90;;;;;;5062924;28;20452;-79
2023/10/10 02:36:30;;;;;;;2.93;2.30;;;14.50;99.90;;;;;;5061120;28;20486;-79
2023/10/10 02:39:27;;;;;;;8.07;2.67;;;14.50;99.90;;;;;;5050024;28;20736;-79
2023/10/10 02:41:51;;;;;;;5.80;2.10;;;14.50;99.90;;;;;;5053545;28;20449;-79
2023/10/10 02:44:46;;;;;;;6.37;1.90;;;14.50;99.90;;;;;;5059309;28;20822;-79
2023/10/10 02:47:13;;;;;;;5.83;2.30;;;14.40;99.90;;;;;;5056106;28;20475;-78
2023/10/10 02:49:42;;;;;;;7.37;2.37;;;14.40;99.90;;;;;;5049782;28;20844;-79
2023/10/10 02:52:14;;;;;;;7.73;2.50;;;14.40;99.90;;;;;;5067111;28;20541;-79
2023/10/10 02:54:53;;;;;;;4.87;2.60;;;14.40;99.90;;;;;;5061118;28;20470;-79
2023/10/10 02:57:31;;;;;;;3.93;2.90;;;14.30;99.90;;;;;;5055186;28;20485;-79
2023/10/10 03:02:59;;;;;;;4.60;2.07;;;14.20;99.90;;;;;;5078715;27;20513;-79
2023/10/10 03:05:39;;;;;;;7.07;4.27;;;14.20;99.90;;;;;;5058919;28;20486;-78
2023/10/10 03:08:13;;;;;;;7.10;2.63;;;14.30;99.90;;;;;;5058000;28;20449;-79
2023/10/10 03:10:44;;;;;;;13.73;3.23;;;14.30;99.90;;;;;;5052473;28;20469;-78
2023/10/10 03:13:16;;;;;;;10.00;3.33;;;14.30;99.90;;;;;;5050013;28;20804;-79
2023/10/10 03:15:54;;;;;;;7.50;2.10;;;14.40;99.90;;;;;;5052827;28;20476;-79
2023/10/10 03:18:29;;;;;;;5.20;2.57;;;14.30;99.90;;;;;;5047229;28;20463;-79
2023/10/10 03:21:13;;;;;;;8.17;4.03;;;14.30;99.90;;;;;;5063311;28;20495;-79
2023/10/10 03:23:53;;;;;;;6.63;1.87;;;14.20;99.90;;;;;;5051483;28;20781;-79
2023/10/10 03:26:33;;;;;;;4.77;2.13;;;14.30;99.90;;;;;;5056845;28;20830;-79
2023/10/10 03:29:04;;;;;;;11.00;3.77;;;14.30;99.90;;;;;;5062662;28;20505;-79
2023/10/10 03:31:38;;;;;;;9.47;3.03;;;14.30;99.90;;;;;;5060459;28;20489;-79
2023/10/10 03:34:18;;;;;;;9.83;3.10;;;14.30;99.90;;;;;;5060832;28;20456;-79
2023/10/10 03:36:48;;;;;;;5.97;3.07;;;14.30;99.90;;;;;;5055030;28;20501;-79
2023/10/10 03:39:26;;;;;;;10.70;4.23;;;14.30;99.90;;;;;;5047359;28;20965;-78
2023/10/10 05:23:33;;;;;;;9.07;4.40;;;13.70;99.90;;;;;;5029647;28;20482;-79
2023/10/10 05:26:02;;;;;;;8.60;4.00;;;13.70;99.90;;;;;;5029812;28;20800;-79
2023/10/10 05:28:32;;;;;;;11.33;5.40;;;13.80;99.90;;;;;;5031481;28;20464;-79
2023/10/10 05:31:03;;;;;;;7.40;2.77;;;13.80;99.90;;;;;;5037101;28;20929;-79
2023/10/10 05:33:30;;;;;;;7.23;4.33;;;13.80;99.90;;;;;;5030458;28;20561;-79
2023/10/10 05:36:06;;;;;;;10.63;3.73;;;13.90;99.90;;;;;;5035216;28;20537;-81
2023/10/10 05:38:39;;;;;;;12.83;3.87;;;13.90;99.90;;;;;;5029550;28;20469;-80
2023/10/10 05:41:07;;;;;;;12.23;5.20;;;13.90;99.90;;;;;;5037340;28;20536;-79
2023/10/10 05:43:36;;;;;;;13.23;4.50;;;14.00;99.90;;;;;;5028472;28;20468;-80
2023/10/10 05:46:04;;;;;;;13.17;3.90;;;14.00;99.90;;;;;;5036987;28;20533;-80
2023/10/10 05:48:32;;;;;;;10.63;3.07;;;14.10;99.90;;;;;;5028435;28;20532;-78
2023/10/10 05:50:59;;;;;;;8.80;3.67;;;14.20;99.90;;;;;;5032570;28;20564;-78
2023/10/10 05:53:27;;;;;;;6.73;3.63;;;14.20;99.90;;;;;;5033259;28;20447;-78
2023/10/10 05:55:58;;;;;;;15.57;5.60;;;14.20;99.90;;;;;;5031055;28;21020;-78
2023/10/10 05:58:25;;;;;;;6.37;2.70;;;14.10;99.90;;;;;;5035286;28;20456;-78
2023/10/10 06:00:54;;;;;;;13.90;3.73;;;14.10;99.90;;;;;;5034132;28;20519;-78
2023/10/10 06:03:22;;;;;;;9.50;3.30;;;14.10;99.90;;;;;;5032169;28;20694;-78
2023/10/10 06:05:50;;;;;;;8.73;3.53;;;14.10;99.90;;;;;;5039066;28;20547;-78
2023/10/10 06:08:17;;;;;;;5.30;2.87;;;14.20;99.90;;;;;;5046504;28;20534;-78
2023/10/10 06:10:44;;;;;;;5.20;2.27;;;14.30;99.90;;;;;;5037026;28;20466;-78
2023/10/10 06:13:12;;;;;;;5.70;2.67;;;14.50;99.90;;;;;;5049580;28;20843;-78
2023/10/10 06:15:39;;;;;;;9.20;3.17;;;14.60;99.90;;;;;;5038768;28;20507;-78
2023/10/10 06:18:12;;;;;;;15.17;3.63;;;14.80;99.90;;;;;;5036164;28;22213;-78
2023/10/10 06:20:41;;;;;;;12.73;4.33;;;14.90;99.90;;;;;;5045701;28;20473;-78
2023/10/10 06:23:14;;;;;;;10.37;4.00;;;14.90;99.90;;;;;;5047094;28;20576;-78
2023/10/10 06:25:42;;;;;;;6.43;4.10;;;15.00;99.90;;;;;;5040840;28;20472;-78
2023/10/10 06:28:22;;;;;;;9.70;3.03;;;15.00;99.90;;;;;;5042899;28;20443;-78
2023/10/10 06:30:52;;;;;;;6.87;3.20;;;15.00;99.90;;;;;;5043293;28;20917;-78
2023/10/10 06:33:27;;;;;;;7.43;3.70;;;15.10;99.90;;;;;;5036369;28;20841;-78
2023/10/10 06:36:18;;;;;;;8.40;3.07;;;15.00;99.90;;;;;;5047301;28;20458;-78
2023/10/10 06:38:45;;;;;;;11.90;3.83;;;15.10;99.90;;;;;;5043495;28;20445;-77
2023/10/10 06:41:17;;;;;;;7.13;2.57;;;15.20;99.90;;;;;;5045613;28;20589;-78
2023/10/10 06:43:46;;;;;;;7.80;3.27;;;15.20;99.90;;;;;;5041760;28;20456;-78
2023/10/10 06:46:17;;;;;;;9.27;3.57;;;15.30;99.90;;;;;;5038247;28;21218;-78
2023/10/10 06:48:47;;;;;;;8.23;3.93;;;15.50;99.90;;;;;;5031928;28;20457;-78
2023/10/10 06:51:15;;;;;;;8.63;3.60;;;15.50;99.90;;;;;;5035465;28;20781;-78
2023/10/10 06:53:45;;;;;;;5.33;2.40;;;15.50;99.90;;;;;;5028097;28;20474;-78
2023/10/10 06:56:18;;;;;;;12.17;3.47;;;15.40;99.90;;;;;;5027904;28;20853;-78
2023/10/10 06:58:45;;;;;;;5.33;2.50;;;15.40;99.90;;;;;;5036131;28;20450;-78
2023/10/10 07:01:14;;;;;;;7.63;3.10;;;15.30;99.90;;;;;;5033261;28;20497;-78
2023/10/10 07:03:54;;;;;;;10.63;3.50;;;15.40;99.90;;;;;;5033626;28;20527;-78
2023/10/10 07:06:21;;;;;;;14.90;3.47;;;15.40;99.90;;;;;;5032764;28;20798;-78
2023/10/10 07:09:03;;;;;;;4.27;2.77;;;15.50;99.90;;;;;;5037643;28;20831;-77
2023/10/10 07:11:30;;;;;;;10.87;4.33;;;15.50;99.90;;;;;;5037570;28;20574;-78
2023/10/10 07:13:58;;;;;;;7.80;2.57;;;15.60;99.90;;;;;;5037641;28;20451;-77
2023/10/10 07:16:25;;;;;;;9.53;3.07;;;15.70;99.90;;;;;;5026074;28;20800;-78
2023/10/10 07:18:56;;;;;;;6.30;3.67;;;15.90;99.90;;;;;;5024861;28;20979;-77
2023/10/10 07:21:30;;;;;;;4.40;2.27;;;16.00;99.90;;;;;;5044347;28;20460;-77
2023/10/10 07:24:05;;;;;;;11.13;5.00;;;16.20;99.90;;;;;;5033000;28;20462;-78
2023/10/10 07:26:41;;;;;;;6.30;3.50;;;16.20;99.90;;;;;;5033221;28;20466;-78
2023/10/10 07:31:48;;;;;;;10.90;3.50;;;16.20;99.90;;;;;;5037584;28;20440;-79
2023/10/10 07:34:17;;;;;;;8.53;2.47;;;16.40;99.90;;;;;;5034191;28;20499;-79
2023/10/10 07:36:44;;;;;;;7.13;3.00;;;16.40;99.90;;;;;;5035564;28;20455;-79
2023/10/10 07:41:57;;;;;;;10.83;3.00;;;16.30;99.90;;;;;;5016954;28;20480;-79
2023/10/10 07:44:25;;;;;;;6.80;2.73;;;16.20;99.90;;;;;;5042310;28;20495;-79
2023/10/10 07:49:35;;;;;;;17.90;3.67;;;16.30;99.90;;;;;;5024562;28;20938;-79
2023/10/10 07:52:03;;;;;;;6.80;3.70;;;16.30;99.90;;;;;;5036209;28;20886;-78
2023/10/10 07:54:38;;;;;;;9.17;2.60;;;16.40;99.90;;;;;;5040354;28;20897;-79
2023/10/10 07:57:10;;;;;;;9.97;4.00;;;16.60;99.90;;;;;;5042095;28;20464;-79
2023/10/10 07:59:37;;;;;;;9.50;4.40;;;16.90;99.90;;;;;;5028395;28;20467;-79
2023/10/10 08:02:19;;;;;;;13.10;2.87;;;17.10;99.90;;;;;;5034409;28;20580;-79
2023/10/10 08:04:49;;;;;;;7.93;3.10;;;17.10;99.90;;;;;;5038160;28;20951;-79
2023/10/10 08:07:18;;;;;;;6.10;3.20;;;17.00;99.90;;;;;;5041181;28;20468;-79
2023/10/10 08:09:46;;;;;;;7.00;2.97;;;17.10;99.90;;;;;;5036319;28;20562;-79
2023/10/10 08:12:13;;;;;;;6.40;4.40;;;17.00;99.90;;;;;;5047105;28;20472;-79
2023/10/10 08:14:41;;;;;;;8.17;2.77;;;16.90;99.90;;;;;;5033297;28;21025;-79
2023/10/10 08:17:18;;;;;;;17.57;3.63;;;16.90;99.90;;;;;;5029068;28;20561;-79
2023/10/10 08:19:50;;;;;;;6.90;2.53;;;17.10;99.90;;;;;;5032957;28;20923;-79
2023/10/10 08:22:25;;;;;;;6.90;2.47;;;17.30;99.90;;;;;;5043768;28;20489;-79
2023/10/10 08:24:52;;;;;;;9.30;3.20;;;17.40;99.90;;;;;;5033084;28;20480;-79
2023/10/10 08:27:22;;;;;;;9.77;2.40;;;17.40;99.90;;;;;;5038973;28;20513;-79
2023/10/10 08:29:50;;;;;;;13.17;3.03;;;17.50;99.90;;;;;;5030560;28;20449;-79
2023/10/10 08:32:17;;;;;;;5.77;2.33;;;17.60;99.90;;;;;;5045659;28;20920;-79
2023/10/10 08:34:44;;;;;;;15.20;4.27;;;17.70;99.90;;;;;;5031932;28;20470;-78
2023/10/10 08:37:11;;;;;;;8.53;2.70;;;17.60;99.90;;;;;;5035925;28;20442;-78
2023/10/10 08:39:41;;;;;;;6.17;3.70;;;17.50;99.90;;;;;;5028211;28;20523;-78
2023/10/10 08:42:10;;;;;;;10.37;3.40;;;17.60;99.90;;;;;;5039659;28;20492;-79
2023/10/10 08:44:40;;;;;;;4.63;2.50;;;17.80;99.90;;;;;;5030397;28;20454;-80
2023/10/10 08:47:08;;;;;;;10.33;4.67;;;17.90;99.60;;;;;;5033392;28;20778;-79
2023/10/10 08:49:35;;;;;;;10.77;4.30;;;18.00;99.20;;;;;;5035639;28;20762;-79
2023/10/10 08:52:04;;;;;;;7.47;3.43;;;18.20;99.90;;;;;;5040847;28;20550;-80
2023/10/10 08:54:33;;;;;;;8.70;3.63;;;18.20;99.20;;;;;;5035944;28;20472;-79
2023/10/10 08:57:02;;;;;;;10.43;3.77;;;18.10;99.60;;;;;;5034072;28;20461;-79
2023/10/10 08:59:31;;;;;;;12.40;4.80;;;17.90;99.00;;;;;;5030793;28;20854;-80
2023/10/10 09:02:09;;;;;;;7.60;3.90;;;17.80;99.60;;;;;;5034220;28;20558;-80
2023/10/10 09:04:36;;;;;;;5.53;3.00;;;17.80;99.90;;;;;;5033456;28;20528;-80
2023/10/10 09:07:08;;;;;;;7.27;3.00;;;17.80;99.90;;;;;;5039698;28;20845;-80
2023/10/10 09:09:37;;;;;;;7.50;2.53;;;17.70;99.90;;;;;;5036490;28;20464;-80
2023/10/10 09:12:12;;;;;;;6.33;2.80;;;17.80;99.90;;;;;;5032787;28;20453;-80
2023/10/10 09:14:40;;;;;;;4.53;2.03;;;18.00;99.90;;;;;;5030904;28;20479;-80
2023/10/10 09:17:09;;;;;;;12.63;4.27;;;18.20;99.80;;;;;;5036793;28;20839;-80
2023/10/10 09:19:48;;;;;;;7.77;3.00;;;18.30;99.80;;;;;;5034733;28;20460;-80
2023/10/10 09:22:29;;;;;;;5.87;2.93;;;18.40;98.20;;;;;;5041805;28;20450;-80
2023/10/10 09:24:56;;;;;;;4.37;3.40;;;18.40;98.20;;;;;;5027786;28;20445;-80
2023/10/10 09:27:27;;;;;;;5.80;3.40;;;18.30;96.20;;;;;;5034069;28;20555;-80
2023/10/10 09:29:57;;;;;;;5.27;2.63;;;18.30;97.50;;;;;;5027425;28;20448;-80
2023/10/10 09:32:36;;;;;;;10.40;3.70;;;18.30;98.60;;;;;;5035955;28;20466;-79
2023/10/10 09:35:06;;;;;;;5.47;3.30;;;18.30;98.30;;;;;;5035688;28;20451;-79
2023/10/10 09:37:38;;;;;;;8.23;3.37;;;18.30;97.50;;;;;;5036771;28;20464;-79
2023/10/10 09:40:15;;;;;;;10.27;3.53;;;18.30;96.30;;;;;;5039409;28;20459;-80
2023/10/10 09:43:11;;;;;;;8.47;4.27;;;18.10;95.80;;;;;;5037178;28;20987;-79
2023/10/10 09:45:55;;;;;;;9.77;4.37;;;18.20;96.70;;;;;;5026466;28;20461;-79
2023/10/10 09:48:46;;;;;;;6.90;3.87;;;18.20;97.00;;;;;;5030808;28;20534;-79
2023/10/10 09:52:47;;;;;;;10.27;3.97;;;18.30;95.20;;;;;;5037229;28;20485;-79
2023/10/10 09:54:25;;;;;;;4.10;2.50;;;18.30;95.00;;;;;;5029157;28;20942;-79
2023/10/10 09:56:53;;;;;;;5.13;2.90;;;18.20;93.50;;;;;;5034186;28;20959;-79
2023/10/10 09:59:28;;;;;;;6.47;3.10;;;18.20;95.30;;;;;;5028428;28;20934;-79
2023/10/10 10:02:04;;;;;;;7.50;3.60;;;18.30;93.70;;;;;;5044768;28;20484;-79
2023/10/10 10:04:38;;;;;;;12.20;3.27;;;18.40;94.50;;;;;;5037214;28;20800;-80
2023/10/10 10:07:18;;;;;;;9.80;4.90;;;18.60;95.80;;;;;;5041109;28;20510;-79
2023/10/10 10:10:16;;;;;;;8.07;5.20;;;18.70;94.00;;;;;;5042145;28;20452;-80
2023/10/10 10:12:59;;;;;;;5.67;2.60;;;18.90;92.20;;;;;;5046177;28;20968;-80
2023/10/10 10:15:48;;;;;;;5.77;3.03;;;19.10;90.90;;;;;;5029558;28;20500;-80
2023/10/10 10:18:26;;;;;;;8.83;4.33;;;19.10;92.80;;;;;;5042523;28;20466;-80
2023/10/10 10:21:13;;;;;;;8.40;3.40;;;19.20;91.20;;;;;;5045546;28;20466;-80
2023/10/10 10:23:46;;;;;;;7.50;2.87;;;19.20;91.60;;;;;;5044260;28;20849;-80
2023/10/10 10:26:22;;;;;;;6.10;3.67;;;19.50;91.40;;;;;;5036271;28;20586;-80
2023/10/10 10:28:56;;;;;;;8.97;3.30;;;19.50;92.60;;;;;;5036571;28;20541;-80
2023/10/10 10:31:29;;;;;;;9.20;4.13;;;19.80;94.50;;;;;;5038619;28;20448;-80
2023/10/10 10:34:15;;;;;;;6.00;2.90;;;20.20;92.60;;;;;;5026261;28;20524;-80
2023/10/10 10:36:44;;;;;;;11.30;5.00;;;20.50;90.20;;;;;;5031259;28;20488;-80
2023/10/10 10:39:19;;;;;;;7.83;4.50;;;21.00;82.60;;;;;;5028775;28;20471;-79
2023/10/10 10:41:53;;;;;;;7.50;2.80;;;21.40;80.80;;;;;;5030254;28;20965;-79
2023/10/10 10:44:53;;;;;;;5.70;3.37;;;21.70;81.50;;;;;;5036119;28;20491;-80
2023/10/10 10:47:47;;;;;;;8.73;3.63;;;21.70;78.30;;;;;;5031319;28;20457;-80
2023/10/10 10:50:40;;;;;;;7.60;3.57;;;21.80;76.00;;;;;;5036650;28;20912;-80
2023/10/10 10:53:20;;;;;;;7.73;3.20;;;21.70;76.50;;;;;;5041160;28;20456;-80
2023/10/10 10:55:59;;;;;;;9.33;4.50;;;21.30;76.40;;;;;;5027295;28;21099;-79
2023/10/10 10:58:26;;;;;;;9.93;5.00;;;21.10;78.70;;;;;;5044841;28;20458;-80
2023/10/10 11:01:00;;;;;;;3.97;2.43;;;20.90;81.90;;;;;;5034077;28;20501;-80
2023/10/10 11:03:35;;;;;;;9.03;3.63;;;20.70;78.30;;;;;;5045229;28;20999;-80
2023/10/10 11:06:06;;;;;;;8.27;4.40;;;20.80;80.20;;;;;;5038253;28;20481;-79
2023/10/10 11:11:27;;;;;;;7.30;3.93;;;20.70;78.40;;;;;;5034727;28;20480;-79
2023/10/10 11:13:59;;;;;;;5.63;3.23;;;20.90;80.30;;;;;;5039019;28;20444;-79
2023/10/10 11:16:36;;;;;;;7.07;2.60;;;21.00;80.70;;;;;;5028229;28;20472;-80
2023/10/10 11:19:12;;;;;;;6.90;2.90;;;21.20;83.50;;;;;;5039902;28;20480;-80
2023/10/10 11:21:48;;;;;;;10.10;3.67;;;21.30;79.80;;;;;;5041053;28;20570;-80
2023/10/10 11:24:23;;;;;;;8.37;2.53;;;21.40;78.30;;;;;;5039094;28;20821;-79
2023/10/10 11:27:02;;;;;;;10.37;3.50;;;21.10;75.10;;;;;;5030005;28;20449;-80
2023/10/10 11:29:29;;;;;;;9.37;4.03;;;20.90;76.60;;;;;;5041773;28;20440;-80
2023/10/10 11:32:06;;;;;;;4.73;3.47;;;21.00;79.50;;;;;;5041126;28;20453;-80
2023/10/10 11:34:42;;;;;;;9.17;3.60;;;21.00;74.10;;;;;;5045028;28;20474;-80
2023/10/10 11:37:20;;;;;;;10.53;5.07;;;21.00;76.90;;;;;;5035850;28;20476;-80
2023/10/10 11:39:48;;;;;;;6.07;3.40;;;20.90;77.90;;;;;;5043484;28;20478;-80
2023/10/10 11:42:27;;;;;;;9.40;3.80;;;20.90;76.70;;;;;;5041613;28;20536;-80
2023/10/10 11:44:54;;;;;;;9.70;3.40;;;21.10;79.40;;;;;;5035245;28;20520;-79
2023/10/10 11:47:25;;;;;;;10.40;4.83;;;21.50;77.60;;;;;;5037041;28;20476;-80
2023/10/10 11:50:05;;;;;;;9.30;4.10;;;21.70;75.00;;;;;;5035118;28;20531;-80
2023/10/10 11:52:33;;;;;;;6.57;3.20;;;21.80;72.20;;;;;;5040377;28;20532;-79
2023/10/10 11:55:02;;;;;;;5.40;3.27;;;21.50;73.40;;;;;;5030715;28;20469;-80
2023/10/10 11:57:29;;;;;;;7.83;5.83;;;21.60;72.00;;;;;;5038252;28;20529;-79
2023/10/10 12:00:01;;;;;;;6.27;3.53;;;21.60;71.30;;;;;;5030161;28;20469;-80
2023/10/10 12:02:39;;;;;;;6.60;4.20;;;21.40;72.20;;;;;;5041637;28;20510;-80
2023/10/10 12:05:36;;;;;;;22.30;5.10;;;21.60;74.60;;;;;;5037158;28;20495;-80
2023/10/10 12:08:06;;;;;;;12.10;2.63;;;21.60;75.00;;;;;;5037867;28;20465;-79
2023/10/10 12:10:47;;;;;;;11.17;3.70;;;21.70;72.20;;;;;;5037170;28;20536;-80
2023/10/10 12:13:20;;;;;;;13.17;4.00;;;21.70;75.60;;;;;;5038807;28;20476;-79
2023/10/10 12:15:47;;;;;;;6.80;3.53;;;21.80;75.80;;;;;;5032766;28;20483;-79
2023/10/10 12:18:14;;;;;;;9.63;3.17;;;21.80;78.40;;;;;;5042884;28;20466;-80
2023/10/10 12:20:44;;;;;;;6.90;3.50;;;21.80;71.80;;;;;;5047139;28;20854;-80
2023/10/10 12:23:11;;;;;;;6.00;2.97;;;21.60;69.60;;;;;;5042457;28;20460;-80
2023/10/10 12:25:40;;;;;;;4.77;2.10;;;21.60;70.60;;;;;;5044968;28;20444;-80
2023/10/10 12:28:09;;;;;;;7.60;3.10;;;21.60;70.00;;;;;;5041996;28;20480;-80
2023/10/10 12:30:40;;;;;;;5.73;2.63;;;21.60;71.10;;;;;;5032851;28;20470;-80
2023/10/10 12:33:12;;;;;;;5.50;2.60;;;21.60;72.60;;;;;;5039071;28;20504;-80
2023/10/10 12:35:42;;;;;;;3.73;2.30;;;21.90;74.00;;;;;;5038559;28;20453;-81
2023/10/10 12:38:11;;;;;;;5.53;2.50;;;21.70;71.00;;;;;;5038331;28;20493;-80
2023/10/10 12:40:39;;;;;;;9.23;2.80;;;21.70;70.10;;;;;;5039003;28;20468;-81
2023/10/10 12:43:07;;;;;;;5.10;2.10;;;21.70;70.60;;;;;;5041756;28;20524;-82
2023/10/10 12:45:34;;;;;;;5.77;2.37;;;21.90;71.10;;;;;;5033548;28;20860;-84
2023/10/10 12:48:02;;;;;;;7.53;3.13;;;21.90;70.90;;;;;;5028705;28;20478;-80
2023/10/10 12:50:30;;;;;;;7.40;3.30;;;21.80;68.20;;;;;;5037016;28;20449;-80
2023/10/10 12:53:07;;;;;;;5.43;2.80;;;21.80;65.00;;;;;;5034328;28;20453;-80
2023/10/10 12:55:46;;;;;;;5.30;2.37;;;21.80;67.50;;;;;;5039911;28;20457;-80
2023/10/10 12:58:16;;;;;;;8.40;3.10;;;21.80;66.10;;;;;;5035104;28;20449;-81
2023/10/10 13:00:51;;;;;;;6.13;2.47;;;21.90;64.90;;;;;;5032876;28;20468;-80
2023/10/10 13:03:18;;;;;;;6.33;2.30;;;21.90;64.60;;;;;;5038291;28;20460;-80
2023/10/10 13:05:48;;;;;;;3.73;2.97;;;21.90;61.90;;;;;;5031637;28;20446;-80
2023/10/10 13:08:17;;;;;;;5.63;3.20;;;21.80;63.40;;;;;;5039679;28;20461;-80
2023/10/10 13:10:46;;;;;;;4.40;2.83;;;21.90;66.30;;;;;;5031922;28;20463;-80
2023/10/10 13:13:26;;;;;;;4.50;2.10;;;21.80;61.80;;;;;;5040885;28;20837;-80
2023/10/10 13:16:07;;;;;;;4.80;3.93;;;21.70;62.00;;;;;;5034113;28;20962;-80
2023/10/10 13:18:35;;;;;;;7.83;2.70;;;21.70;66.60;;;;;;5028918;28;20786;-80
2023/10/10 13:21:03;;;;;;;8.30;2.30;;;21.70;66.90;;;;;;5028679;28;20461;-81
2023/10/10 13:23:30;;;;;;;3.60;2.10;;;21.70;66.20;;;;;;5036937;28;20520;-81
2023/10/10 13:25:59;;;;;;;8.60;5.20;;;21.70;65.60;;;;;;5033238;28;20497;-81
2023/10/10 13:28:26;;;;;;;4.23;2.77;;;21.60;66.30;;;;;;5039353;28;21025;-80
2023/10/10 13:30:54;;;;;;;5.43;3.00;;;21.60;66.00;;;;;;5031309;28;20465;-80
2023/10/10 13:33:21;;;;;;;7.30;3.33;;;21.60;66.70;;;;;;5031453;28;20461;-80
2023/10/10 13:35:48;;;;;;;5.50;2.47;;;21.60;66.60;;;;;;5027535;28;20957;-80
2023/10/10 13:38:15;;;;;;;17.40;3.20;;;21.60;68.50;;;;;;5034535;28;20474;-81
2023/10/10 13:40:46;;;;;;;7.73;2.97;;;21.50;69.80;;;;;;5040586;28;20507;-80
2023/10/10 13:43:17;;;;;;;6.47;3.20;;;21.40;67.60;;;;;;5033413;28;20469;-80
2023/10/10 13:45:47;;;;;;;8.47;3.70;;;21.20;68.20;;;;;;5029136;28;20538;-81
2023/10/10 13:48:18;;;;;;;6.00;3.27;;;21.10;71.00;;;;;;5029770;28;20536;-80
2023/10/10 13:50:46;;;;;;;4.73;3.10;;;21.00;73.70;;;;;;5040237;28;20485;-80
2023/10/10 13:53:14;;;;;;;3.47;1.87;;;21.00;73.00;;;;;;5041241;28;20483;-80
2023/10/10 13:55:46;;;;;;;6.80;4.50;;;20.90;72.10;;;;;;5030845;28;20458;-81
2023/10/10 13:58:16;;;;;;;7.90;3.50;;;20.80;73.90;;;;;;5039932;28;20526;-80
2023/10/10 14:00:52;;;;;;;8.33;6.23;;;20.80;72.90;;;;;;5032237;28;21094;-80
2023/10/10 14:03:28;;;;;;;8.93;3.40;;;20.80;73.00;;;;;;5037005;28;20954;-80
2023/10/10 14:06:03;;;;;;;5.53;2.33;;;20.80;73.30;;;;;;5039275;28;20695;-80
2023/10/10 14:08:31;;;;;;;3.93;3.53;;;20.80;75.00;;;;;;5045609;28;20479;-81
2023/10/10 14:11:00;;;;;;;7.33;2.30;;;20.90;74.10;;;;;;5043842;28;20532;-78
2023/10/10 14:13:28;;;;;;;7.00;3.00;;;20.60;73.90;;;;;;5047934;28;20506;-77
2023/10/10 14:15:56;;;;;;;10.27;2.50;;;20.60;76.50;;;;;;5033602;28;20464;-78
2023/10/10 14:18:30;;;;;;;6.87;3.67;;;20.60;79.30;;;;;;5042542;28;20452;-78
2023/10/10 14:21:01;;;;;;;6.50;3.17;;;20.60;78.40;;;;;;5031263;28;20447;-78
2023/10/10 14:23:29;;;;;;;6.87;2.77;;;20.40;80.30;;;;;;5047082;28;20440;-78
2023/10/10 14:26:12;;;;;;;5.60;2.80;;;20.30;80.80;;;;;;5034080;28;20481;-80
2023/10/10 14:28:41;;;;;;;8.80;2.90;;;20.20;80.90;;;;;;5045732;28;20456;-79
2023/10/10 14:31:12;;;;;;;7.70;3.70;;;20.10;81.00;;;;;;5043045;28;20939;-80
2023/10/10 14:33:40;;;;;;;6.50;2.67;;;20.10;82.20;;;;;;5047815;28;20445;-80
2023/10/10 14:36:12;;;;;;;5.80;2.50;;;20.00;80.80;;;;;;5043895;28;20507;-80
2023/10/10 14:38:39;;;;;;;11.50;3.77;;;20.00;83.10;;;;;;5046863;28;20477;-79
2023/10/10 14:41:07;;;;;;;6.60;2.73;;;20.00;81.60;;;;;;5040086;28;20517;-79
2023/10/10 14:43:34;;;;;;;7.67;3.57;;;20.10;82.60;;;;;;5043677;28;20456;-80
2023/10/10 14:46:03;;;;;;;6.50;4.13;;;20.20;83.50;;;;;;5039293;28;20577;-80
2023/10/10 14:48:33;;;;;;;7.30;4.47;;;20.10;82.80;;;;;;5044608;28;20444;-80
2023/10/10 14:51:05;;;;;;;5.93;4.13;;;20.30;81.90;;;;;;5031885;28;20477;-80
2023/10/10 14:53:34;;;;;;;6.50;3.30;;;20.40;80.50;;;;;;5044394;28;20457;-80
2023/10/10 14:56:05;;;;;;;3.43;1.83;;;20.50;80.90;;;;;;5036032;28;20449;-80
2023/10/10 14:58:33;;;;;;;6.63;3.03;;;20.50;82.50;;;;;;5043632;28;20453;-80
2023/10/10 15:01:02;;;;;;;10.60;2.67;;;20.60;83.50;;;;;;5033980;28;20507;-80
2023/10/10 15:03:35;;;;;;;8.20;2.40;;;20.60;84.40;;;;;;5048169;28;20452;-80
2023/10/10 15:06:06;;;;;;;10.60;3.53;;;20.60;86.40;;;;;;5039357;28;21562;-80
2023/10/10 15:08:33;;;;;;;10.17;3.63;;;20.40;85.70;;;;;;5042185;28;20937;-80